createdAt,value
2023-12-19T00:01:58.220Z,11.75
2023-12-19T00:04:27.074Z,11.97
2023-12-19T00:06:55.665Z,12.00
2023-12-19T00:09:24.235Z,12.08
2023-12-19T00:11:52.604Z,11.68
2023-12-19T00:14:22.778Z,11.90
2023-12-19T00:16:51.885Z,11.89
2023-12-19T00:19:20.651Z,12.02
2023-12-19T00:21:49.229Z,12.07
2023-12-19T00:24:17.773Z,11.96
2023-12-19T00:26:46.148Z,11.98
2023-12-19T00:29:19.206Z,12.08
2023-12-19T00:31:52.880Z,11.97
2023-12-19T00:34:22.352Z,12.00
2023-12-19T00:36:52.784Z,11.99
2023-12-19T00:39:21.244Z,12.00
2023-12-19T00:41:51.739Z,11.72
2023-12-19T00:44:20.609Z,11.84
2023-12-19T00:46:51.032Z,11.50
2023-12-19T00:49:19.536Z,11.94
2023-12-19T00:51:47.879Z,12.03
2023-12-19T00:54:16.415Z,11.90
2023-12-19T00:56:44.856Z,11.91
2023-12-19T00:59:13.111Z,11.90
2023-12-19T01:01:41.543Z,11.68
2023-12-19T01:04:12.435Z,11.74
2023-12-19T01:06:42.349Z,10.78
2023-12-19T01:09:11.216Z,11.46
2023-12-19T01:11:39.789Z,11.57
2023-12-19T01:14:08.220Z,11.67
2023-12-19T01:16:36.863Z,11.76
2023-12-19T01:19:08.248Z,11.54
2023-12-19T01:21:38.208Z,11.76
2023-12-19T01:24:07.406Z,11.48
2023-12-19T01:26:35.819Z,11.38
2023-12-19T01:29:04.798Z,11.38
2023-12-19T01:31:35.647Z,10.95
2023-12-19T01:34:04.072Z,11.37
2023-12-19T01:36:33.325Z,11.53
2023-12-19T01:39:03.295Z,11.47
2023-12-19T01:41:32.320Z,11.61
2023-12-19T01:44:00.850Z,11.64
2023-12-19T01:46:29.966Z,11.53
2023-12-19T01:49:00.895Z,11.56
2023-12-19T01:51:29.913Z,11.40
2023-12-19T01:53:59.715Z,11.66
2023-12-19T01:56:29.856Z,11.61
2023-12-19T01:58:59.097Z,11.54
2023-12-19T02:01:27.992Z,11.28
2023-12-19T02:03:56.780Z,11.61
2023-12-19T02:06:26.085Z,11.41
2023-12-19T02:08:54.423Z,11.52
2023-12-19T02:11:22.950Z,11.29
2023-12-19T02:13:52.867Z,11.23
2023-12-19T02:16:21.277Z,10.93
2023-12-19T02:19:02.488Z,11.37
2023-12-19T02:21:31.752Z,11.30
2023-12-19T02:24:01.972Z,11.40
2023-12-19T02:26:30.684Z,11.53
2023-12-19T02:28:59.458Z,11.29
2023-12-19T02:31:28.248Z,11.45
2023-12-19T02:33:56.918Z,11.65
2023-12-19T02:36:25.793Z,11.76
2023-12-19T02:38:54.077Z,11.83
2023-12-19T02:41:24.049Z,11.65
2023-12-19T02:43:54.622Z,11.40
2023-12-19T02:46:24.690Z,11.58
2023-12-19T02:48:53.436Z,11.79
2023-12-19T02:51:23.048Z,11.72
2023-12-19T02:53:52.890Z,11.80
2023-12-19T02:56:21.411Z,11.52
2023-12-19T02:58:51.176Z,11.71
2023-12-19T03:01:22.468Z,11.45
2023-12-19T03:03:51.043Z,11.51
2023-12-19T03:06:19.841Z,11.71
2023-12-19T03:08:49.121Z,11.50
2023-12-19T03:11:17.635Z,11.90
2023-12-19T03:13:46.464Z,11.75
2023-12-19T03:16:16.207Z,11.80
2023-12-19T03:18:44.600Z,11.74
2023-12-19T03:21:13.077Z,11.80
2023-12-19T03:23:41.889Z,11.45
2023-12-19T03:26:10.301Z,11.71
2023-12-19T03:28:38.961Z,11.77
2023-12-19T03:31:07.406Z,11.41
2023-12-19T03:33:37.374Z,11.74
2023-12-19T03:36:06.872Z,11.69
2023-12-19T03:38:36.815Z,11.74
2023-12-19T03:41:05.525Z,11.59
2023-12-19T03:43:33.737Z,11.84
2023-12-19T03:46:03.968Z,11.67
2023-12-19T03:48:32.593Z,11.67
2023-12-19T03:51:02.681Z,11.74
2023-12-19T03:53:31.247Z,11.97
2023-12-19T03:55:59.806Z,11.92
2023-12-19T03:58:28.207Z,11.66
2023-12-19T04:00:56.769Z,11.79
2023-12-19T04:03:25.094Z,11.68
2023-12-19T04:05:53.452Z,11.37
2023-12-19T04:08:23.468Z,11.61
2023-12-19T04:10:51.703Z,11.48
2023-12-19T04:13:20.309Z,11.49
2023-12-19T04:15:49.030Z,11.68
2023-12-19T04:18:17.690Z,11.59
2023-12-19T04:20:46.033Z,11.66
2023-12-19T04:23:14.688Z,11.37
2023-12-19T04:25:44.766Z,11.45
2023-12-19T04:28:13.094Z,11.41
2023-12-19T04:30:41.489Z,11.33
2023-12-19T04:33:09.996Z,10.99
2023-12-19T04:35:38.502Z,11.21
2023-12-19T04:38:06.874Z,11.18
2023-12-19T04:40:35.217Z,11.29
2023-12-19T04:43:05.232Z,10.97
2023-12-19T04:45:33.944Z,11.05
2023-12-19T04:48:02.371Z,10.74
2023-12-19T04:50:30.925Z,11.07
2023-12-19T04:52:59.271Z,11.15
2023-12-19T04:55:27.569Z,11.10
2023-12-19T04:57:56.221Z,11.16
2023-12-19T05:00:26.104Z,11.19
2023-12-19T05:02:56.749Z,11.24
2023-12-19T05:05:26.395Z,11.03
2023-12-19T05:07:54.739Z,11.08
2023-12-19T05:10:23.247Z,11.28
2023-12-19T05:12:51.685Z,11.23
2023-12-19T05:15:20.596Z,10.96
2023-12-19T05:17:50.682Z,11.19
2023-12-19T05:20:19.499Z,11.21
2023-12-19T05:22:47.957Z,11.28
2023-12-19T05:25:16.237Z,11.12
2023-12-19T05:27:45.257Z,11.15
2023-12-19T05:30:14.778Z,11.01
2023-12-19T05:32:43.533Z,10.93
2023-12-19T05:35:13.712Z,10.78
2023-12-19T05:37:41.968Z,10.73
2023-12-19T05:40:11.565Z,10.69
2023-12-19T05:42:40.090Z,10.74
2023-12-19T05:45:09.925Z,10.81
2023-12-19T05:47:38.995Z,10.59
2023-12-19T05:50:08.285Z,10.80
2023-12-19T05:52:38.193Z,10.95
2023-12-19T05:55:07.165Z,10.72
2023-12-19T05:57:35.520Z,10.60
2023-12-19T06:00:06.646Z,10.35
2023-12-19T06:02:36.746Z,10.37
2023-12-19T06:05:08.566Z,10.15
2023-12-19T06:07:39.329Z,10.43
2023-12-19T06:10:11.693Z,10.48
2023-12-19T06:12:40.653Z,10.56
2023-12-19T06:15:12.882Z,10.51
2023-12-19T06:17:43.828Z,10.28
2023-12-19T06:20:12.835Z,10.36
2023-12-19T06:22:44.428Z,10.36
2023-12-19T06:25:13.272Z,10.60
2023-12-19T06:27:43.837Z,10.75
2023-12-19T06:30:22.725Z,10.70
2023-12-19T06:32:57.002Z,10.25
2023-12-19T06:35:25.946Z,10.49
2023-12-19T06:37:56.123Z,10.43
2023-12-19T06:40:25.057Z,10.30
2023-12-19T06:43:09.686Z,10.02
2023-12-19T06:45:38.420Z,10.38
2023-12-19T06:48:08.097Z,10.36
2023-12-19T06:50:43.457Z,10.26
2023-12-19T06:53:36.791Z,10.38
2023-12-19T06:56:11.660Z,10.26
2023-12-19T06:58:40.105Z,10.23
2023-12-19T07:01:09.593Z,10.25
2023-12-19T07:03:38.073Z,10.53
2023-12-19T07:06:07.328Z,10.60
2023-12-19T07:08:46.141Z,10.56
2023-12-19T07:11:19.023Z,10.56
2023-12-19T07:13:50.055Z,10.29
2023-12-19T07:16:21.230Z,10.27
2023-12-19T07:18:50.407Z,10.31
2023-12-19T07:21:25.915Z,10.48
2023-12-19T07:23:56.441Z,10.27
2023-12-19T07:26:26.277Z,10.25
2023-12-19T07:28:55.045Z,10.38
2023-12-19T07:31:29.033Z,10.04
2023-12-19T07:33:59.651Z,10.08
2023-12-19T07:36:29.162Z,10.37
2023-12-19T07:38:59.519Z,10.40
2023-12-19T07:41:28.927Z,10.45
2023-12-19T07:43:58.305Z,10.47
2023-12-19T07:46:27.002Z,10.21
2023-12-19T07:48:56.797Z,10.00
2023-12-19T07:51:25.659Z,10.12
2023-12-19T07:53:55.909Z,9.62
2023-12-19T07:56:26.034Z,10.22
2023-12-19T07:58:56.061Z,10.37
2023-12-19T08:01:24.693Z,10.20
2023-12-19T08:03:53.170Z,10.43
2023-12-19T08:06:22.356Z,10.59
2023-12-19T08:08:52.801Z,10.16
2023-12-19T08:11:21.319Z,10.15
2023-12-19T08:13:52.225Z,10.35
2023-12-19T08:16:22.390Z,10.16
2023-12-19T08:18:52.761Z,10.39
2023-12-19T08:21:21.449Z,10.43
2023-12-19T08:23:50.224Z,10.55
2023-12-19T08:26:18.821Z,10.53
2023-12-19T08:28:47.833Z,10.33
2023-12-19T08:31:18.260Z,10.16
2023-12-19T08:33:50.287Z,10.25
2023-12-19T08:36:33.387Z,10.29
2023-12-19T08:39:05.749Z,9.87
2023-12-19T08:41:34.865Z,10.04
2023-12-19T08:44:03.247Z,10.32
2023-12-19T08:46:34.288Z,10.51
2023-12-19T08:49:03.834Z,10.37
2023-12-19T08:51:32.840Z,10.07
2023-12-19T08:54:02.056Z,10.05
2023-12-19T08:56:30.874Z,10.29
2023-12-19T08:58:59.165Z,10.29
2023-12-19T09:01:28.096Z,10.48
2023-12-19T09:03:58.258Z,10.44
2023-12-19T09:06:26.780Z,10.39
2023-12-19T09:08:55.466Z,10.45
2023-12-19T09:11:24.793Z,10.13
2023-12-19T09:13:53.097Z,10.34
2023-12-19T09:16:21.415Z,10.06
2023-12-19T09:18:50.450Z,10.50
2023-12-19T09:21:20.413Z,10.49
2023-12-19T09:23:49.253Z,9.94
2023-12-19T09:26:17.624Z,9.57
2023-12-19T09:28:47.162Z,9.98
2023-12-19T09:31:17.688Z,10.00
2023-12-19T09:33:46.324Z,10.07
2023-12-19T09:36:26.142Z,9.93
2023-12-19T09:38:55.777Z,10.08
2023-12-19T09:41:24.235Z,10.14
2023-12-19T09:43:52.518Z,10.30
2023-12-19T09:46:21.284Z,10.30
2023-12-19T09:48:51.684Z,10.30
2023-12-19T09:51:28.794Z,9.91
2023-12-19T09:53:57.726Z,9.99
2023-12-19T09:56:27.271Z,10.36
2023-12-19T09:58:56.999Z,10.24
2023-12-19T10:01:28.454Z,10.29
2023-12-19T10:03:58.072Z,9.89
2023-12-19T10:06:31.136Z,10.13
2023-12-19T10:09:04.530Z,10.16
2023-12-19T10:11:32.923Z,10.36
2023-12-19T10:14:12.488Z,10.21
2023-12-19T10:16:42.898Z,10.48
2023-12-19T10:19:15.072Z,10.32
2023-12-19T10:21:44.897Z,10.26
2023-12-19T10:24:15.523Z,10.32
2023-12-19T10:26:43.936Z,10.48
2023-12-19T10:29:13.635Z,10.25
2023-12-19T10:31:42.326Z,10.17
2023-12-19T10:34:20.204Z,9.89
2023-12-19T10:36:50.709Z,10.32
2023-12-19T10:39:21.252Z,10.11
2023-12-19T10:41:49.988Z,10.20
2023-12-19T10:44:20.473Z,10.20
2023-12-19T10:46:50.467Z,10.32
2023-12-19T10:49:19.128Z,10.52
2023-12-19T10:51:58.074Z,10.34
2023-12-19T10:54:28.316Z,10.27
2023-12-19T10:57:07.009Z,10.34
2023-12-19T10:59:48.114Z,10.38
2023-12-19T11:02:30.172Z,10.48
2023-12-19T11:05:07.312Z,10.39
2023-12-19T11:07:39.920Z,10.53
2023-12-19T11:10:12.918Z,10.45
2023-12-19T11:12:42.922Z,10.58
2023-12-19T11:15:12.409Z,10.56
2023-12-19T11:17:48.490Z,10.32
2023-12-19T11:20:25.016Z,10.47
2023-12-19T11:23:06.112Z,10.39
2023-12-19T11:25:40.892Z,10.23
2023-12-19T11:28:10.540Z,10.20
2023-12-19T11:30:41.816Z,10.03
2023-12-19T11:33:13.434Z,10.56
2023-12-19T11:35:42.562Z,10.49
2023-12-19T11:38:30.643Z,10.47
2023-12-19T11:40:59.893Z,10.26
2023-12-19T11:43:55.880Z,10.50
2023-12-19T11:46:26.944Z,10.37
2023-12-19T11:48:57.197Z,10.19
2023-12-19T11:51:51.666Z,10.24
2023-12-19T11:54:23.256Z,10.29
2023-12-19T11:57:02.934Z,10.29
2023-12-19T11:59:53.229Z,10.16
2023-12-19T12:02:31.746Z,10.18
2023-12-19T12:05:11.624Z,10.24
2023-12-19T12:07:45.057Z,10.17
2023-12-19T12:10:17.910Z,10.21
2023-12-19T12:12:47.007Z,10.13
2023-12-19T12:15:19.002Z,9.52
2023-12-19T12:17:48.073Z,10.17
2023-12-19T12:20:17.773Z,9.97
2023-12-19T12:22:46.818Z,9.99
2023-12-19T12:25:19.586Z,10.23
2023-12-19T12:27:48.302Z,10.13
2023-12-19T12:30:17.237Z,10.16
2023-12-19T12:32:47.695Z,10.02
2023-12-19T12:35:29.370Z,9.92
2023-12-19T12:37:59.792Z,9.83
2023-12-19T12:40:29.908Z,9.55
2023-12-19T12:43:51.308Z,9.68
2023-12-19T12:46:23.092Z,9.87
2023-12-19T12:49:02.208Z,10.22
2023-12-19T12:51:32.220Z,9.49
2023-12-19T12:54:04.661Z,9.87
2023-12-19T12:56:38.202Z,9.83
2023-12-19T12:59:11.099Z,10.12
2023-12-19T13:01:41.282Z,10.21
2023-12-19T13:04:10.331Z,10.10
2023-12-19T13:06:49.890Z,9.69
2023-12-19T13:09:39.246Z,9.54
2023-12-19T13:12:10.581Z,10.03
2023-12-19T13:14:40.458Z,9.49
2023-12-19T13:17:17.684Z,9.60
2023-12-19T13:19:46.261Z,9.99
2023-12-19T13:22:14.869Z,10.00
2023-12-19T13:24:46.012Z,9.86
2023-12-19T13:27:17.517Z,10.07
2023-12-19T13:29:46.081Z,9.97
2023-12-19T13:32:14.938Z,9.70
2023-12-19T13:34:43.837Z,10.21
2023-12-19T13:37:12.735Z,10.14
2023-12-19T13:39:43.304Z,10.24
2023-12-19T13:42:11.710Z,10.08
2023-12-19T13:44:42.405Z,9.92
2023-12-19T13:47:11.580Z,9.80
2023-12-19T13:49:40.414Z,9.91
2023-12-19T13:52:09.474Z,9.64
2023-12-19T13:54:40.770Z,9.72
2023-12-19T13:57:10.020Z,9.94
2023-12-19T13:59:39.283Z,9.99
2023-12-19T14:02:12.139Z,9.97
2023-12-19T14:04:43.023Z,9.72
2023-12-19T14:07:15.476Z,9.70
2023-12-19T14:09:44.223Z,9.67
2023-12-19T14:12:27.375Z,9.92
2023-12-19T14:14:57.701Z,10.03
2023-12-19T14:17:31.398Z,9.96
2023-12-19T14:20:01.615Z,9.57
2023-12-19T14:22:30.985Z,9.58
2023-12-19T14:25:01.011Z,9.71
2023-12-19T14:27:30.302Z,9.76
2023-12-19T14:33:14.861Z,9.55
2023-12-19T14:35:46.999Z,9.44
2023-12-19T14:38:17.973Z,9.70
2023-12-19T14:40:54.225Z,9.44
2023-12-19T14:43:45.450Z,9.69
2023-12-19T14:46:36.785Z,9.82
2023-12-19T16:53:23.922Z,8.77
2023-12-19T16:55:52.388Z,8.91
2023-12-19T16:58:33.422Z,8.86
2023-12-19T17:01:11.774Z,8.61
2023-12-19T17:03:51.337Z,8.57
2023-12-19T17:06:33.324Z,8.49
2023-12-19T17:09:04.953Z,8.92
2023-12-19T17:11:33.505Z,8.52
2023-12-19T17:14:02.722Z,8.76
2023-12-19T17:16:34.476Z,8.75
2023-12-19T17:19:04.049Z,8.80
2023-12-19T17:21:33.105Z,8.51
2023-12-19T17:24:04.463Z,9.17
2023-12-19T17:26:35.711Z,8.68
2023-12-19T17:29:04.462Z,9.16
2023-12-19T17:31:34.927Z,9.16
2023-12-19T17:34:05.504Z,9.25
2023-12-19T17:36:35.401Z,9.17
2023-12-19T17:39:06.300Z,9.14
2023-12-19T17:41:38.361Z,9.09
2023-12-19T17:44:08.451Z,9.07
2023-12-19T17:46:37.870Z,8.79
2023-12-19T17:49:06.543Z,9.06
2023-12-19T17:51:35.310Z,8.91
2023-12-19T17:54:09.162Z,9.29
2023-12-19T17:56:37.770Z,9.30
2023-12-19T17:59:12.465Z,8.94
2023-12-19T18:01:44.835Z,9.15
2023-12-19T18:04:13.811Z,8.68
2023-12-19T18:06:42.493Z,8.86
2023-12-19T18:09:12.670Z,9.10
2023-12-19T18:11:41.992Z,8.80
2023-12-19T18:14:10.557Z,9.26
2023-12-19T18:16:40.303Z,8.66
2023-12-19T18:19:08.872Z,9.04
2023-12-19T18:21:37.660Z,9.08
2023-12-19T18:24:08.569Z,9.10
2023-12-19T18:26:41.010Z,9.20
2023-12-19T18:29:12.854Z,9.43
2023-12-19T18:31:43.490Z,9.19
2023-12-19T18:34:12.342Z,9.35
2023-12-19T18:36:41.532Z,9.27
2023-12-19T18:39:11.648Z,9.38
2023-12-19T18:41:41.744Z,9.01
2023-12-19T18:44:10.240Z,9.19
2023-12-19T18:46:42.385Z,9.25
2023-12-19T18:49:12.639Z,9.17
2023-12-19T18:51:41.917Z,8.85
2023-12-19T18:54:10.708Z,9.09
2023-12-19T18:56:43.956Z,8.88
2023-12-19T18:59:13.361Z,9.23
2023-12-19T19:01:42.143Z,9.01
2023-12-19T19:04:11.597Z,9.11
2023-12-19T19:06:43.699Z,8.82
2023-12-19T19:09:13.224Z,9.16
2023-12-19T19:11:46.549Z,9.05
2023-12-19T19:14:15.496Z,9.03
2023-12-19T19:16:44.350Z,9.19
2023-12-19T19:19:13.615Z,9.02
2023-12-19T19:21:47.916Z,9.15
2023-12-19T19:24:17.126Z,9.08
2023-12-19T19:26:54.602Z,9.22
2023-12-19T19:29:26.972Z,9.03
2023-12-19T19:31:57.239Z,9.01
2023-12-19T19:34:27.242Z,9.00
2023-12-19T19:36:56.784Z,8.61
2023-12-19T19:39:29.124Z,8.74
2023-12-19T19:42:00.979Z,8.82
2023-12-19T19:44:30.836Z,8.78
2023-12-19T19:47:00.223Z,8.70
2023-12-19T19:49:31.543Z,8.96
2023-12-19T19:52:00.398Z,8.90
2023-12-19T19:54:29.118Z,8.84
2023-12-19T19:56:59.726Z,8.80
2023-12-19T19:59:28.281Z,8.90
2023-12-19T20:01:58.769Z,8.81
2023-12-19T20:04:30.462Z,8.97
2023-12-19T20:06:59.740Z,9.13
2023-12-19T20:09:29.222Z,9.05
2023-12-19T20:12:02.947Z,9.03
2023-12-19T20:14:32.187Z,8.96
2023-12-19T20:17:06.570Z,8.98
2023-12-19T20:19:36.580Z,9.02
2023-12-19T20:22:06.239Z,9.10
2023-12-19T20:24:35.472Z,8.97
2023-12-19T20:27:08.361Z,8.58
2023-12-19T20:29:40.733Z,9.02
2023-12-19T20:32:09.558Z,8.85
2023-12-19T20:34:38.771Z,8.83
2023-12-19T20:37:07.376Z,8.82
2023-12-19T20:39:36.160Z,8.88
2023-12-19T20:42:07.669Z,8.99
2023-12-19T20:44:37.485Z,8.96
2023-12-19T20:47:12.123Z,8.64
2023-12-19T20:49:41.888Z,8.62
2023-12-19T20:52:10.900Z,8.81
2023-12-19T20:54:39.472Z,8.74
2023-12-19T20:57:10.924Z,8.69
2023-12-19T21:00:45.013Z,8.80
2023-12-19T21:03:16.352Z,8.48
2023-12-19T21:05:50.754Z,8.72
2023-12-19T21:08:19.589Z,7.96
2023-12-19T21:10:49.901Z,8.46
2023-12-19T21:13:23.986Z,8.78
2023-12-19T21:15:55.301Z,8.13
2023-12-19T21:18:30.726Z,8.62
2023-12-19T21:21:06.138Z,8.82
2023-12-19T21:23:57.016Z,8.54
2023-12-19T21:26:36.337Z,8.50
2023-12-19T21:29:20.741Z,8.90
2023-12-19T21:32:03.768Z,8.94
2023-12-19T21:35:02.822Z,8.74
2023-12-19T21:40:46.583Z,8.75
2023-12-19T21:43:28.358Z,8.86
2023-12-19T21:45:59.115Z,8.92
2023-12-19T21:48:29.539Z,8.97
2023-12-19T21:50:59.389Z,8.44
2023-12-19T21:53:28.558Z,8.57
2023-12-19T21:55:58.502Z,8.56
2023-12-19T21:58:27.532Z,8.51
2023-12-19T22:00:58.681Z,8.51
2023-12-19T22:03:27.142Z,8.92
2023-12-19T22:05:55.630Z,8.91
2023-12-19T22:08:25.065Z,9.04
2023-12-19T22:10:53.997Z,8.94
2023-12-19T22:13:23.083Z,8.91
2023-12-19T22:15:52.034Z,8.92
2023-12-19T22:18:23.471Z,8.86
2023-12-19T22:20:53.609Z,8.82
2023-12-19T22:23:22.697Z,8.78
2023-12-19T22:25:51.304Z,8.59
2023-12-19T22:28:20.698Z,8.74
2023-12-19T22:30:50.092Z,8.94
2023-12-19T22:33:19.290Z,8.82
2023-12-19T22:35:49.769Z,9.03
2023-12-19T22:38:19.093Z,8.96
2023-12-19T22:40:48.085Z,8.76
2023-12-19T22:43:16.976Z,8.91
2023-12-19T22:45:46.694Z,9.29
2023-12-19T22:48:15.569Z,8.83
2023-12-19T22:50:44.317Z,8.99
2023-12-19T22:53:14.569Z,8.97
2023-12-19T22:55:46.238Z,8.88
2023-12-19T22:58:16.275Z,8.81
2023-12-19T23:00:45.763Z,8.73
2023-12-19T23:03:18.630Z,8.71
2023-12-19T23:05:47.709Z,8.53
2023-12-19T23:08:19.044Z,8.49
2023-12-19T23:10:47.739Z,8.62
2023-12-19T23:13:16.547Z,8.53
2023-12-19T23:15:47.647Z,8.68
2023-12-19T23:18:16.731Z,8.72
2023-12-19T23:20:45.851Z,8.73
2023-12-19T23:23:15.219Z,8.85
2023-12-19T23:25:46.327Z,8.49
2023-12-19T23:28:14.825Z,8.66
2023-12-19T23:30:43.735Z,8.97
2023-12-19T23:33:12.222Z,8.67
2023-12-19T23:35:40.753Z,8.58
2023-12-19T23:38:09.192Z,8.80
2023-12-19T23:40:38.203Z,8.71
2023-12-19T23:43:08.773Z,8.60
2023-12-19T23:45:37.348Z,8.83
2023-12-19T23:48:08.361Z,8.90
2023-12-19T23:50:37.186Z,8.72
2023-12-19T23:53:05.958Z,8.73
2023-12-19T23:55:35.024Z,8.93
2023-12-19T23:58:05.657Z,9.05
